createdAt,value
2018-09-02T00:01:42.150Z,12.63
2018-09-02T00:04:10.974Z,13.87
2018-09-02T00:06:39.413Z,14.57
2018-09-02T00:09:07.940Z,12.97
2018-09-02T00:11:36.574Z,12.80
2018-09-02T00:14:05.078Z,14.00
2018-09-02T00:16:33.691Z,14.67
2018-09-02T00:19:02.399Z,14.17
2018-09-02T00:21:30.806Z,13.87
2018-09-02T00:23:59.670Z,14.27
2018-09-02T00:26:28.151Z,14.93
2018-09-02T00:28:56.607Z,14.73
2018-09-02T00:31:25.051Z,14.60
2018-09-02T00:33:53.637Z,15.13
2018-09-02T00:36:22.239Z,14.13
2018-09-02T00:38:50.648Z,14.13
2018-09-02T00:41:19.175Z,14.10
2018-09-02T00:43:47.587Z,13.87
2018-09-02T00:46:16.026Z,13.57
2018-09-02T00:48:44.456Z,14.30
2018-09-02T00:51:13.074Z,14.83
2018-09-02T00:53:41.555Z,13.27
2018-09-02T00:56:10.009Z,14.53
2018-09-02T00:58:38.431Z,14.03
2018-09-02T01:01:07.157Z,15.00
2018-09-02T01:03:35.591Z,14.83
2018-09-02T01:06:04.154Z,15.10
2018-09-02T01:08:32.736Z,15.47
2018-09-02T01:11:01.172Z,15.10
2018-09-02T01:13:29.588Z,13.53
2018-09-02T01:15:58.357Z,14.27
2018-09-02T01:18:26.981Z,16.13
2018-09-02T01:20:55.450Z,14.63
2018-09-02T01:23:23.911Z,15.53
2018-09-02T01:25:52.631Z,14.07
2018-09-02T01:28:21.187Z,14.70
2018-09-02T01:30:49.692Z,15.77
2018-09-02T01:33:18.150Z,15.23
2018-09-02T01:35:46.682Z,14.43
2018-09-02T01:38:15.134Z,15.33
2018-09-02T01:40:43.740Z,15.67
2018-09-02T01:43:12.221Z,15.33
2018-09-02T01:45:40.656Z,13.97
2018-09-02T01:48:09.092Z,15.03
2018-09-02T01:50:37.536Z,15.30
2018-09-02T01:53:05.975Z,15.07
2018-09-02T01:55:34.473Z,15.23
2018-09-02T01:58:02.927Z,15.20
2018-09-02T02:00:31.451Z,15.27
2018-09-02T02:02:59.870Z,14.87
2018-09-02T02:05:28.317Z,14.43
2018-09-02T02:07:56.850Z,14.70
2018-09-02T02:10:25.304Z,14.50
2018-09-02T02:12:53.766Z,14.53
2018-09-02T02:15:22.224Z,15.17
2018-09-02T02:17:50.684Z,15.07
2018-09-02T02:20:19.155Z,15.70
2018-09-02T02:22:47.591Z,15.77
2018-09-02T02:25:16.045Z,15.17
2018-09-02T02:27:44.587Z,15.30
2018-09-02T02:30:13.192Z,16.60
2018-09-02T02:32:41.673Z,16.77
2018-09-02T02:35:10.119Z,17.23
2018-09-02T02:37:38.624Z,16.90
2018-09-02T02:40:07.535Z,15.33
2018-09-02T02:42:36.075Z,14.63
2018-09-02T02:45:04.856Z,15.70
2018-09-02T02:47:33.301Z,15.43
2018-09-02T02:50:01.734Z,14.83
2018-09-02T02:52:34.437Z,13.90
2018-09-02T02:55:02.877Z,13.50
2018-09-02T02:57:31.383Z,14.93
2018-09-02T02:59:59.816Z,15.13
2018-09-02T03:02:28.323Z,16.53
2018-09-02T03:04:56.777Z,15.27
2018-09-02T03:07:25.284Z,14.10
2018-09-02T03:09:53.755Z,13.43
2018-09-02T03:12:22.208Z,14.30
2018-09-02T03:14:50.690Z,14.33
2018-09-02T03:17:19.211Z,14.60
2018-09-02T03:19:47.898Z,13.57
2018-09-02T03:22:16.428Z,14.43
2018-09-02T03:24:44.944Z,14.73
2018-09-02T03:27:13.421Z,13.53
2018-09-02T03:29:41.901Z,13.97
2018-09-02T03:32:10.335Z,13.57
2018-09-02T03:34:38.770Z,14.47
2018-09-02T03:37:07.395Z,12.67
2018-09-02T03:39:35.825Z,10.43
2018-09-02T03:42:04.492Z,11.23
2018-09-02T03:44:32.923Z,11.03
2018-09-02T03:47:01.556Z,11.50
2018-09-02T03:49:30.019Z,13.00
2018-09-02T03:51:58.548Z,12.63
2018-09-02T03:54:27.105Z,13.20
2018-09-02T03:56:55.816Z,12.53
2018-09-02T03:59:24.914Z,12.87
2018-09-02T04:01:53.503Z,12.73
2018-09-02T04:04:21.931Z,13.07
2018-09-02T04:06:50.454Z,13.07
2018-09-02T04:09:18.842Z,14.87
2018-09-02T04:11:47.303Z,14.70
2018-09-02T04:14:15.792Z,14.57
2018-09-02T04:16:44.272Z,14.63
2018-09-02T04:19:12.883Z,15.80
2018-09-02T04:21:42.374Z,14.90
2018-09-02T04:24:10.856Z,15.37
2018-09-02T04:26:39.453Z,15.43
2018-09-02T04:29:08.123Z,15.40
2018-09-02T04:31:36.756Z,14.80
2018-09-02T04:34:05.211Z,14.73
2018-09-02T04:36:33.749Z,13.87
2018-09-02T04:39:02.162Z,13.37
2018-09-02T04:41:30.663Z,13.40
2018-09-02T04:43:59.156Z,13.77
2018-09-02T04:46:27.608Z,14.03
2018-09-02T04:48:56.103Z,13.40
2018-09-02T04:51:24.562Z,14.63
2018-09-02T04:53:53.131Z,13.83
2018-09-02T04:56:21.535Z,12.73
2018-09-02T04:58:49.975Z,14.10
2018-09-02T05:01:18.459Z,14.33
2018-09-02T05:03:47.080Z,13.57
2018-09-02T05:06:15.486Z,13.10
2018-09-02T05:08:44.062Z,12.77
2018-09-02T05:11:12.574Z,13.13
2018-09-02T05:13:41.150Z,13.10
2018-09-02T05:16:09.637Z,11.67
2018-09-02T05:18:38.212Z,11.53
2018-09-02T05:21:06.723Z,11.27
2018-09-02T05:23:35.239Z,11.97
2018-09-02T05:26:03.661Z,12.50
2018-09-02T05:28:32.123Z,11.97
2018-09-02T05:31:00.814Z,12.70
2018-09-02T05:33:29.295Z,12.63
2018-09-02T05:35:57.691Z,12.30
2018-09-02T05:38:26.255Z,11.27
2018-09-02T05:40:54.783Z,11.60
2018-09-02T05:43:23.318Z,11.93
2018-09-02T05:45:51.796Z,11.20
2018-09-02T05:48:20.446Z,11.17
2018-09-02T05:50:48.900Z,10.77
2018-09-02T05:53:17.423Z,11.53
2018-09-02T05:55:45.875Z,11.73
2018-09-02T05:58:14.352Z,11.07
2018-09-02T06:00:43.188Z,10.87
2018-09-02T06:03:11.774Z,11.20
2018-09-02T06:05:40.307Z,11.03
2018-09-02T06:08:08.831Z,12.20
2018-09-02T06:10:37.254Z,11.90
2018-09-02T06:13:05.791Z,11.40
2018-09-02T06:15:34.271Z,11.90
2018-09-02T06:18:02.733Z,11.33
2018-09-02T06:20:31.205Z,12.47
2018-09-02T06:22:59.634Z,11.93
2018-09-02T06:25:28.108Z,12.73
2018-09-02T06:27:56.652Z,11.43
2018-09-02T06:30:25.458Z,10.90
2018-09-02T06:32:53.954Z,10.63
2018-09-02T06:35:22.592Z,11.10
2018-09-02T06:37:51.307Z,9.77
2018-09-02T06:40:19.767Z,9.83
2018-09-02T06:42:48.369Z,9.90
2018-09-02T06:45:16.947Z,11.10
2018-09-02T06:47:45.483Z,11.43
2018-09-02T06:50:13.962Z,9.53
2018-09-02T06:52:42.377Z,12.37
2018-09-02T06:55:10.874Z,12.20
2018-09-02T06:57:39.339Z,10.27
2018-09-02T07:00:07.819Z,8.43
2018-09-02T07:02:36.276Z,8.63
2018-09-02T07:05:04.724Z,8.03
2018-09-02T07:07:33.139Z,8.27
2018-09-02T07:10:01.723Z,8.67
2018-09-02T07:12:30.229Z,8.83
2018-09-02T07:14:58.662Z,7.93
2018-09-02T07:17:27.188Z,8.43
2018-09-02T07:19:55.718Z,8.93
2018-09-02T07:22:24.404Z,8.10
2018-09-02T07:24:52.810Z,9.03
2018-09-02T07:27:21.416Z,7.53
2018-09-02T07:29:50.029Z,7.10
2018-09-02T07:32:18.461Z,7.90
2018-09-02T07:34:46.991Z,9.67
2018-09-02T07:37:15.407Z,10.20
2018-09-02T07:39:43.901Z,8.70
2018-09-02T07:42:12.497Z,8.93
2018-09-02T07:44:40.983Z,7.93
2018-09-02T07:47:09.513Z,8.10
2018-09-02T07:49:38.055Z,8.43
2018-09-02T07:52:06.496Z,7.97
2018-09-02T07:54:35.006Z,9.17
2018-09-02T07:57:03.850Z,8.43
2018-09-02T07:59:32.390Z,9.30
2018-09-02T08:02:00.848Z,9.33
2018-09-02T08:04:29.329Z,9.17
2018-09-02T08:06:57.914Z,9.10
2018-09-02T08:09:26.369Z,9.50
2018-09-02T08:11:54.907Z,8.47
2018-09-02T08:14:23.452Z,8.77
2018-09-02T08:16:51.848Z,9.27
2018-09-02T08:19:20.300Z,8.97
2018-09-02T08:21:48.881Z,9.87
2018-09-02T08:24:17.392Z,8.17
2018-09-02T08:26:45.827Z,8.30
2018-09-02T08:29:14.542Z,8.40
2018-09-02T08:31:43.091Z,70.93
2018-09-02T08:34:11.700Z,19.87
2018-09-02T08:36:40.222Z,9.00
2018-09-02T08:39:10.182Z,7.60
2018-09-02T08:41:39.061Z,7.83
2018-09-02T08:44:08.314Z,8.40
2018-09-02T08:46:37.035Z,8.50
2018-09-02T08:49:05.671Z,7.80
2018-09-02T08:51:34.129Z,7.30
2018-09-02T08:54:02.590Z,8.10
2018-09-02T08:56:31.301Z,7.83
2018-09-02T08:58:59.772Z,7.43
2018-09-02T09:01:28.254Z,8.60
2018-09-02T09:03:56.846Z,6.80
2018-09-02T09:06:25.869Z,6.60
2018-09-02T09:08:54.761Z,6.97
2018-09-02T09:11:23.467Z,8.53
2018-09-02T09:13:52.149Z,8.97
2018-09-02T09:16:20.788Z,8.13
2018-09-02T09:18:49.413Z,8.00
2018-09-02T09:21:17.907Z,7.23
2018-09-02T09:23:46.314Z,10.30
2018-09-02T09:26:15.100Z,9.13
2018-09-02T09:28:43.581Z,14.33
2018-09-02T09:31:12.169Z,13.03
2018-09-02T09:33:40.650Z,7.60
2018-09-02T09:36:09.152Z,7.13
2018-09-02T09:38:37.659Z,6.33
2018-09-02T09:41:06.923Z,8.93
2018-09-02T09:43:35.542Z,6.60
2018-09-02T09:46:04.175Z,9.07
2018-09-02T09:48:33.060Z,6.73
2018-09-02T09:51:01.640Z,6.73
2018-09-02T09:53:31.038Z,8.90
2018-09-02T09:55:59.640Z,8.10
2018-09-02T09:58:28.107Z,7.03
2018-09-02T10:00:57.110Z,7.97
2018-09-02T10:03:25.610Z,7.40
2018-09-02T10:05:55.669Z,7.53
2018-09-02T10:08:27.182Z,8.00
2018-09-02T10:10:58.826Z,9.13
2018-09-02T10:13:27.509Z,11.83
2018-09-02T10:15:56.105Z,25.40
2018-09-02T10:18:24.595Z,15.53
2018-09-02T10:20:53.103Z,8.73
2018-09-02T10:23:21.563Z,8.53
2018-09-02T10:25:50.043Z,11.13
2018-09-02T10:28:18.522Z,8.90
2018-09-02T10:30:46.949Z,10.63
2018-09-02T10:33:15.728Z,7.83
2018-09-02T10:35:44.334Z,6.17
2018-09-02T10:38:13.063Z,7.53
2018-09-02T10:40:41.666Z,8.07
2018-09-02T10:43:10.172Z,16.70
2018-09-02T10:45:38.612Z,8.23
2018-09-02T10:48:07.142Z,8.33
2018-09-02T10:50:35.574Z,6.43
2018-09-02T10:53:04.045Z,15.97
2018-09-02T10:55:32.535Z,18.03
2018-09-02T10:58:00.995Z,13.37
2018-09-02T11:00:29.493Z,8.43
2018-09-02T11:02:57.994Z,9.00
2018-09-02T11:05:26.435Z,7.50
2018-09-02T11:07:55.318Z,6.83
2018-09-02T11:10:23.774Z,6.83
2018-09-02T11:12:52.212Z,7.40
2018-09-02T11:15:20.676Z,7.07
2018-09-02T11:17:49.266Z,6.40
2018-09-02T11:20:17.710Z,6.13
2018-09-02T11:22:52.613Z,6.77
2018-09-02T11:25:21.136Z,5.13
2018-09-02T11:27:49.586Z,5.57
2018-09-02T11:30:18.004Z,5.47
2018-09-02T11:32:46.518Z,5.90
2018-09-02T11:35:15.016Z,5.33
2018-09-02T11:37:43.458Z,5.13
2018-09-02T11:40:11.947Z,5.70
2018-09-02T11:42:40.438Z,5.57
2018-09-02T11:45:08.986Z,16.37
2018-09-02T11:47:37.591Z,7.30
2018-09-02T11:50:06.293Z,5.33
2018-09-02T11:52:34.688Z,4.97
2018-09-02T11:55:03.170Z,4.73
2018-09-02T11:57:31.624Z,4.63
2018-09-02T12:00:00.222Z,4.93
2018-09-02T12:02:28.645Z,5.40
2018-09-02T12:04:57.334Z,4.40
2018-09-02T12:07:25.956Z,5.47
2018-09-02T12:09:54.871Z,4.90
2018-09-02T12:12:23.327Z,6.97
2018-09-02T12:14:52.149Z,7.90
2018-09-02T12:17:20.575Z,5.60
2018-09-02T12:19:49.007Z,7.03
2018-09-02T12:22:17.529Z,6.60
2018-09-02T12:24:46.026Z,4.97
2018-09-02T12:27:14.469Z,5.00
2018-09-02T12:29:42.936Z,5.37
2018-09-02T12:32:11.400Z,4.73
2018-09-02T12:34:39.871Z,5.47
2018-09-02T12:37:08.383Z,5.33
2018-09-02T12:39:36.874Z,4.47
2018-09-02T12:42:05.319Z,5.47
2018-09-02T12:44:34.358Z,4.60
2018-09-02T12:47:02.803Z,4.80
2018-09-02T12:49:31.230Z,5.67
2018-09-02T12:51:59.689Z,5.50
2018-09-02T12:54:28.123Z,4.43
2018-09-02T12:56:56.544Z,4.77
2018-09-02T12:59:25.039Z,5.83
2018-09-02T13:01:53.448Z,4.80
2018-09-02T13:04:21.883Z,3.53
2018-09-02T13:06:50.337Z,3.60
2018-09-02T13:09:18.796Z,3.13
2018-09-02T13:11:47.443Z,3.37
2018-09-02T13:14:15.851Z,3.90
2018-09-02T13:16:44.263Z,4.03
2018-09-02T13:19:12.708Z,3.40
2018-09-02T13:21:41.135Z,3.00
2018-09-02T13:24:09.568Z,3.50
2018-09-02T13:26:37.974Z,4.80
2018-09-02T13:29:06.627Z,4.27
2018-09-02T13:31:35.078Z,3.50
2018-09-02T13:34:03.588Z,3.63
2018-09-02T13:36:32.039Z,3.67
2018-09-02T13:39:00.473Z,2.93
2018-09-02T13:41:28.896Z,3.60
2018-09-02T13:43:57.360Z,3.83
2018-09-02T13:46:25.875Z,3.97
2018-09-02T13:48:54.435Z,4.43
2018-09-02T13:51:22.933Z,4.53
2018-09-02T13:53:51.566Z,5.00
2018-09-02T13:56:19.967Z,4.40
2018-09-02T13:58:48.464Z,4.53
2018-09-02T14:01:16.922Z,4.30
2018-09-02T14:03:45.792Z,4.00
2018-09-02T14:06:14.212Z,3.97
2018-09-02T14:08:42.646Z,3.90
2018-09-02T14:11:11.110Z,3.93
2018-09-02T14:13:39.550Z,6.23
2018-09-02T14:16:08.010Z,5.53
2018-09-02T14:18:37.037Z,4.20
2018-09-02T14:21:05.600Z,3.10
2018-09-02T14:23:34.128Z,4.13
2018-09-02T14:26:02.761Z,3.50
2018-09-02T14:28:31.372Z,3.23
2018-09-02T14:30:59.999Z,4.20
2018-09-02T14:33:28.514Z,3.70
2018-09-02T14:35:56.944Z,3.90
2018-09-02T14:38:25.498Z,4.20
2018-09-02T14:40:54.018Z,4.13
2018-09-02T14:43:22.581Z,4.63
2018-09-02T14:45:51.080Z,5.20
2018-09-02T14:48:19.528Z,5.13
2018-09-02T14:50:49.841Z,5.07
2018-09-02T14:53:18.333Z,5.40
2018-09-02T14:55:47.288Z,5.67
2018-09-02T14:58:18.272Z,5.93
2018-09-02T15:00:46.781Z,6.20
2018-09-02T15:03:15.779Z,6.17
2018-09-02T15:05:44.335Z,5.27
2018-09-02T15:08:12.863Z,5.40
2018-09-02T15:10:41.315Z,5.57
2018-09-02T15:13:09.772Z,5.53
2018-09-02T15:15:38.268Z,5.00
2018-09-02T15:18:06.906Z,5.23
2018-09-02T15:20:35.374Z,5.30
2018-09-02T15:23:03.811Z,7.30
2018-09-02T15:25:32.278Z,6.13
2018-09-02T15:28:00.806Z,5.60
2018-09-02T15:30:29.385Z,7.60
2018-09-02T15:32:57.849Z,7.47
2018-09-02T15:35:26.320Z,6.20
2018-09-02T15:37:54.798Z,7.00
2018-09-02T15:40:23.296Z,7.20
2018-09-02T15:42:51.906Z,5.87
2018-09-02T15:45:20.664Z,5.90
2018-09-02T15:47:49.227Z,5.30
2018-09-02T15:50:17.672Z,6.17
2018-09-02T15:52:46.163Z,18.37
2018-09-02T15:55:14.639Z,9.80
2018-09-02T15:57:43.111Z,8.63
2018-09-02T16:00:11.606Z,6.23
2018-09-02T16:02:40.131Z,5.63
2018-09-02T16:05:08.639Z,6.30
2018-09-02T16:07:37.235Z,5.70
2018-09-02T16:10:05.850Z,5.33
2018-09-02T16:12:34.322Z,6.00
2018-09-02T16:15:02.783Z,6.53
2018-09-02T16:17:31.322Z,5.70
2018-09-02T16:20:00.042Z,5.77
2018-09-02T16:22:28.614Z,6.40
2018-09-02T16:24:57.148Z,6.20
2018-09-02T16:27:25.621Z,5.73
2018-09-02T16:29:54.091Z,5.53
2018-09-02T16:32:22.634Z,7.17
2018-09-02T16:34:51.133Z,6.20
2018-09-02T16:37:19.603Z,6.83
2018-09-02T16:39:48.063Z,6.90
2018-09-02T16:42:16.474Z,7.20
2018-09-02T16:44:44.930Z,6.43
2018-09-02T16:47:13.415Z,7.07
2018-09-02T16:49:41.890Z,6.83
2018-09-02T16:52:10.320Z,7.10
2018-09-02T16:54:38.762Z,6.87
2018-09-02T16:57:07.198Z,7.20
2018-09-02T16:59:35.638Z,7.73
2018-09-02T17:02:04.090Z,7.40
2018-09-02T17:04:34.266Z,8.30
2018-09-02T17:07:02.711Z,7.03
2018-09-02T17:09:31.151Z,7.03
2018-09-02T17:12:00.030Z,7.13
2018-09-02T17:14:28.547Z,6.47
2018-09-02T17:16:57.083Z,6.93
2018-09-02T17:19:27.695Z,6.83
2018-09-02T17:21:56.173Z,6.70
2018-09-02T17:24:24.614Z,6.93
2018-09-02T17:26:53.083Z,7.77
2018-09-02T17:29:21.556Z,7.90
2018-09-02T17:31:50.050Z,8.20
2018-09-02T17:34:18.566Z,7.43
2018-09-02T17:36:47.049Z,7.43
2018-09-02T17:39:15.528Z,7.80
2018-09-02T17:41:43.991Z,7.53
2018-09-02T17:44:12.437Z,7.93
2018-09-02T17:46:40.937Z,6.93
2018-09-02T17:49:09.732Z,7.80
2018-09-02T17:51:38.194Z,7.83
2018-09-02T17:54:06.752Z,9.17
2018-09-02T17:56:35.318Z,8.17
2018-09-02T17:59:04.584Z,8.60
2018-09-02T18:01:33.023Z,8.20
2018-09-02T18:04:01.665Z,8.07
2018-09-02T18:06:30.116Z,8.60
2018-09-02T18:08:58.638Z,10.00
2018-09-02T18:11:27.188Z,10.73
2018-09-02T18:13:55.639Z,9.30
2018-09-02T18:16:24.074Z,9.60
2018-09-02T18:18:52.627Z,9.63
2018-09-02T18:21:21.223Z,9.20
2018-09-02T18:23:49.622Z,8.87
2018-09-02T18:26:18.073Z,9.50
2018-09-02T18:28:47.402Z,9.27
2018-09-02T18:31:15.900Z,9.73
2018-09-02T18:33:44.365Z,9.23
2018-09-02T18:36:12.902Z,8.40
2018-09-02T18:38:41.802Z,9.07
2018-09-02T18:41:10.282Z,9.83
2018-09-02T18:43:39.094Z,9.23
2018-09-02T18:46:07.736Z,9.77
2018-09-02T18:48:36.169Z,8.90
2018-09-02T18:51:04.887Z,9.33
2018-09-02T18:53:33.324Z,9.07
2018-09-02T18:56:01.818Z,9.40
2018-09-02T18:58:30.259Z,8.63
2018-09-02T19:00:58.889Z,8.87
2018-09-02T19:03:27.358Z,8.73
2018-09-02T19:05:55.948Z,8.67
2018-09-02T19:08:24.501Z,8.67
2018-09-02T19:10:52.928Z,8.80
2018-09-02T19:13:21.404Z,9.30
2018-09-02T19:15:50.346Z,8.20
2018-09-02T19:18:19.716Z,8.90
2018-09-02T19:20:48.184Z,9.00
2018-09-02T19:23:16.951Z,10.23
2018-09-02T19:25:45.471Z,10.23
2018-09-02T19:28:13.983Z,11.27
2018-09-02T19:30:42.443Z,11.60
2018-09-02T19:33:10.931Z,13.00
2018-09-02T19:35:39.335Z,11.17
2018-09-02T19:38:07.911Z,10.60
2018-09-02T19:40:36.442Z,10.10
2018-09-02T19:43:05.591Z,10.13
2018-09-02T19:45:34.133Z,10.17
2018-09-02T19:48:02.900Z,10.87
2018-09-02T19:50:31.413Z,11.67
2018-09-02T19:52:59.983Z,10.97
2018-09-02T19:55:28.462Z,11.23
2018-09-02T19:57:57.268Z,11.40
2018-09-02T20:00:25.951Z,11.53
2018-09-02T20:02:54.467Z,12.50
2018-09-02T20:05:23.119Z,12.10
2018-09-02T20:07:52.166Z,42.23
2018-09-02T20:10:20.587Z,44.47
2018-09-02T20:12:49.114Z,97.57
2018-09-02T20:15:17.872Z,42.97
2018-09-02T20:17:47.150Z,43.37
2018-09-02T20:20:15.579Z,19.60
2018-09-02T20:22:44.332Z,14.87
2018-09-02T20:25:12.957Z,13.33
2018-09-02T20:27:41.466Z,13.90
2018-09-02T20:30:09.992Z,13.13
2018-09-02T20:32:39.316Z,13.60
2018-09-02T20:35:07.988Z,24.10
2018-09-02T20:37:36.442Z,26.07
2018-09-02T20:40:05.071Z,16.13
2018-09-02T20:42:33.509Z,12.27
2018-09-02T20:45:02.379Z,11.27
2018-09-02T20:47:31.023Z,11.37
2018-09-02T20:49:59.627Z,12.27
2018-09-02T20:52:28.295Z,13.30
2018-09-02T20:54:57.420Z,12.60
2018-09-02T20:57:26.023Z,11.87
2018-09-02T20:59:54.544Z,11.47
2018-09-02T21:02:23.193Z,11.47
2018-09-02T21:04:52.199Z,11.25
2018-09-02T21:07:20.962Z,10.77
2018-09-02T21:09:49.518Z,10.17
2018-09-02T21:12:18.012Z,11.53
2018-09-02T21:14:46.487Z,11.13
2018-09-02T21:17:15.002Z,11.07
2018-09-02T21:19:43.437Z,11.53
2018-09-02T21:22:12.531Z,11.00
2018-09-02T21:24:41.230Z,12.60
2018-09-02T21:27:09.709Z,13.03
2018-09-02T21:29:39.296Z,16.15
2018-09-02T21:32:07.842Z,15.70
2018-09-02T21:34:36.759Z,15.20
2018-09-02T21:37:05.272Z,13.73
2018-09-02T21:39:34.492Z,14.93
2018-09-02T21:42:03.228Z,13.40
2018-09-02T21:44:31.834Z,12.77
2018-09-02T21:47:00.316Z,16.93
2018-09-02T21:49:29.022Z,14.93
2018-09-02T21:51:57.666Z,14.20
2018-09-02T21:54:26.112Z,12.80
2018-09-02T21:56:54.571Z,12.67
2018-09-02T21:59:23.084Z,13.50
2018-09-02T22:01:51.587Z,13.30
2018-09-02T22:04:20.131Z,13.33
2018-09-02T22:06:48.659Z,13.07
2018-09-02T22:09:17.893Z,12.70
2018-09-02T22:11:46.418Z,12.17
2018-09-02T22:14:15.106Z,13.57
2018-09-02T22:16:44.150Z,12.93
2018-09-02T22:19:12.814Z,13.00
2018-09-02T22:21:41.452Z,13.53
2018-09-02T22:24:10.248Z,14.53
2018-09-02T22:26:39.515Z,21.05
2018-09-02T22:29:08.226Z,19.63
2018-09-02T22:31:36.726Z,22.27
2018-09-02T22:34:05.154Z,19.60
2018-09-02T22:36:33.800Z,16.93
2018-09-02T22:39:02.239Z,17.33
2018-09-02T22:41:30.669Z,16.83
2018-09-02T22:43:59.236Z,16.53
2018-09-02T22:46:27.656Z,18.17
2018-09-02T22:48:56.437Z,17.07
2018-09-02T22:51:24.919Z,15.70
2018-09-02T22:53:53.405Z,16.70
2018-09-02T22:56:21.863Z,13.90
2018-09-02T22:58:50.352Z,13.63
2018-09-02T23:01:18.858Z,12.40
2018-09-02T23:03:47.414Z,12.50
2018-09-02T23:06:16.104Z,12.93
2018-09-02T23:08:44.835Z,13.77
2018-09-02T23:11:13.504Z,13.53
2018-09-02T23:13:42.251Z,13.70
2018-09-02T23:16:10.703Z,13.90
2018-09-02T23:18:39.601Z,14.00
2018-09-02T23:21:08.549Z,14.57
2018-09-02T23:23:37.265Z,14.23
2018-09-02T23:26:05.863Z,13.40
2018-09-02T23:28:34.471Z,14.03
2018-09-02T23:31:03.342Z,13.83
2018-09-02T23:33:32.204Z,13.17
2018-09-02T23:36:01.060Z,12.60
2018-09-02T23:38:29.666Z,12.43
2018-09-02T23:40:59.238Z,11.80
2018-09-02T23:43:27.782Z,12.50
2018-09-02T23:45:56.527Z,12.47
2018-09-02T23:48:25.205Z,11.97
2018-09-02T23:50:54.294Z,13.17
2018-09-02T23:53:22.863Z,12.73
2018-09-02T23:55:51.631Z,12.80
2018-09-02T23:58:20.634Z,13.47
